sensor_id;sensor_type;location;lat;lon;timestamp;pressure;altitude;pressure_sealevel;temperature;humidity
56912;BME280;42800;53.928;27.662;2023-11-19T00:00:25;99418.59;;;0.06;100.00
56912;BME280;42800;53.928;27.662;2023-11-19T00:02:51;99357.25;;;0.16;100.00
56912;BME280;42800;53.928;27.662;2023-11-19T00:05:17;99323.25;;;0.20;100.00
56912;BME280;42800;53.928;27.662;2023-11-19T00:07:44;99297.38;;;0.19;100.00
56912;BME280;42800;53.928;27.662;2023-11-19T00:10:12;99289.00;;;0.02;100.00
56912;BME280;42800;53.928;27.662;2023-11-19T00:12:39;99302.84;;;0.14;100.00
56912;BME280;42800;53.928;27.662;2023-11-19T00:15:06;99304.88;;;0.22;100.00
56912;BME280;42800;53.928;27.662;2023-11-19T00:17:37;99289.06;;;0.35;100.00
56912;BME280;42800;53.928;27.662;2023-11-19T00:20:04;99239.69;;;0.20;100.00
56912;BME280;42800;53.928;27.662;2023-11-19T00:22:31;99243.78;;;-0.20;100.00
56912;BME280;42800;53.928;27.662;2023-11-19T00:24:58;99372.50;;;-0.36;100.00
56912;BME280;42800;53.928;27.662;2023-11-19T00:27:25;99424.69;;;-0.08;100.00
56912;BME280;42800;53.928;27.662;2023-11-19T00:29:52;99415.75;;;-0.27;100.00
56912;BME280;42800;53.928;27.662;2023-11-19T00:32:18;99463.19;;;-0.26;100.00
56912;BME280;42800;53.928;27.662;2023-11-19T00:34:44;99532.00;;;-0.39;100.00
56912;BME280;42800;53.928;27.662;2023-11-19T00:37:10;99549.81;;;-0.14;100.00
56912;BME280;42800;53.928;27.662;2023-11-19T00:39:37;99552.50;;;-0.14;100.00
56912;BME280;42800;53.928;27.662;2023-11-19T00:42:03;99505.56;;;-0.08;100.00
56912;BME280;42800;53.928;27.662;2023-11-19T00:44:31;99574.22;;;-0.29;100.00
56912;BME280;42800;53.928;27.662;2023-11-19T00:46:58;99553.06;;;0.12;100.00
56912;BME280;42800;53.928;27.662;2023-11-19T00:49:25;99479.69;;;-0.09;100.00
56912;BME280;42800;53.928;27.662;2023-11-19T00:51:51;99470.97;;;-0.01;100.00
56912;BME280;42800;53.928;27.662;2023-11-19T00:54:17;99473.50;;;-0.62;100.00
56912;BME280;42800;53.928;27.662;2023-11-19T00:56:44;99549.53;;;-0.41;100.00
56912;BME280;42800;53.928;27.662;2023-11-19T00:59:10;99614.22;;;-0.12;100.00
56912;BME280;42800;53.928;27.662;2023-11-19T01:01:37;99613.84;;;-0.35;100.00
56912;BME280;42800;53.928;27.662;2023-11-19T01:04:04;99626.91;;;-0.13;100.00
56912;BME280;42800;53.928;27.662;2023-11-19T01:06:30;99563.13;;;0.31;100.00
56912;BME280;42800;53.928;27.662;2023-11-19T01:08:57;99460.56;;;0.36;100.00
56912;BME280;42800;53.928;27.662;2023-11-19T01:11:24;99393.13;;;0.36;100.00
56912;BME280;42800;53.928;27.662;2023-11-19T01:13:51;99350.78;;;0.36;100.00
56912;BME280;42800;53.928;27.662;2023-11-19T01:16:17;99356.34;;;-0.17;100.00
56912;BME280;42800;53.928;27.662;2023-11-19T01:18:46;99433.63;;;0.12;100.00
56912;BME280;42800;53.928;27.662;2023-11-19T01:21:12;99414.72;;;0.17;100.00
56912;BME280;42800;53.928;27.662;2023-11-19T01:23:40;99403.56;;;0.42;100.00
56912;BME280;42800;53.928;27.662;2023-11-19T01:26:08;99355.75;;;0.29;100.00
56912;BME280;42800;53.928;27.662;2023-11-19T01:28:35;99369.28;;;0.43;100.00
56912;BME280;42800;53.928;27.662;2023-11-19T01:31:01;99364.34;;;0.50;100.00
56912;BME280;42800;53.928;27.662;2023-11-19T01:33:29;99308.94;;;0.39;100.00
56912;BME280;42800;53.928;27.662;2023-11-19T01:35:56;99327.09;;;0.33;100.00
56912;BME280;42800;53.928;27.662;2023-11-19T01:38:24;99344.53;;;0.41;100.00
56912;BME280;42800;53.928;27.662;2023-11-19T01:40:50;99376.47;;;0.34;100.00
56912;BME280;42800;53.928;27.662;2023-11-19T01:43:31;99367.31;;;0.49;100.00
56912;BME280;42800;53.928;27.662;2023-11-19T01:45:58;99362.38;;;0.37;100.00
56912;BME280;42800;53.928;27.662;2023-11-19T01:48:25;99379.50;;;0.46;100.00
56912;BME280;42800;53.928;27.662;2023-11-19T01:50:52;99372.81;;;0.25;100.00
56912;BME280;42800;53.928;27.662;2023-11-19T01:53:19;99391.44;;;0.59;100.00
56912;BME280;42800;53.928;27.662;2023-11-19T01:55:46;99351.34;;;0.52;100.00
56912;BME280;42800;53.928;27.662;2023-11-19T01:58:13;99333.59;;;0.32;100.00
56912;BME280;42800;53.928;27.662;2023-11-19T02:00:40;99365.56;;;0.58;100.00
56912;BME280;42800;53.928;27.662;2023-11-19T02:03:07;99371.19;;;0.42;100.00
56912;BME280;42800;53.928;27.662;2023-11-19T02:05:34;99367.53;;;0.33;100.00
56912;BME280;42800;53.928;27.662;2023-11-19T02:08:01;99390.59;;;0.26;100.00
56912;BME280;42800;53.928;27.662;2023-11-19T02:10:28;99407.78;;;0.30;100.00
56912;BME280;42800;53.928;27.662;2023-11-19T02:12:54;99436.19;;;0.22;100.00
56912;BME280;42800;53.928;27.662;2023-11-19T02:15:21;99472.72;;;0.33;100.00
56912;BME280;42800;53.928;27.662;2023-11-19T02:17:49;99472.84;;;0.47;100.00
56912;BME280;42800;53.928;27.662;2023-11-19T02:20:16;99462.25;;;0.51;100.00
56912;BME280;42800;53.928;27.662;2023-11-19T02:22:42;99466.13;;;0.44;100.00
56912;BME280;42800;53.928;27.662;2023-11-19T02:25:15;99492.91;;;0.36;100.00
56912;BME280;42800;53.928;27.662;2023-11-19T02:27:48;99494.16;;;0.25;100.00
56912;BME280;42800;53.928;27.662;2023-11-19T02:30:17;99540.09;;;0.38;100.00
56912;BME280;42800;53.928;27.662;2023-11-19T02:32:43;99543.94;;;0.32;100.00
56912;BME280;42800;53.928;27.662;2023-11-19T02:35:09;99544.91;;;0.41;100.00
56912;BME280;42800;53.928;27.662;2023-11-19T02:37:35;99560.75;;;0.48;100.00
56912;BME280;42800;53.928;27.662;2023-11-19T02:40:02;99585.22;;;0.57;100.00
56912;BME280;42800;53.928;27.662;2023-11-19T02:42:31;99579.53;;;0.34;100.00
56912;BME280;42800;53.928;27.662;2023-11-19T02:44:58;99613.91;;;0.23;100.00
56912;BME280;42800;53.928;27.662;2023-11-19T02:47:24;99635.69;;;0.27;100.00
56912;BME280;42800;53.928;27.662;2023-11-19T02:49:51;99631.75;;;0.43;100.00
56912;BME280;42800;53.928;27.662;2023-11-19T02:52:18;99591.53;;;0.47;100.00
56912;BME280;42800;53.928;27.662;2023-11-19T02:54:44;99577.34;;;0.60;100.00
56912;BME280;42800;53.928;27.662;2023-11-19T02:57:11;99557.63;;;0.60;100.00
56912;BME280;42800;53.928;27.662;2023-11-19T02:59:39;99546.34;;;0.58;100.00
56912;BME280;42800;53.928;27.662;2023-11-19T03:02:07;99530.06;;;0.63;100.00
56912;BME280;42800;53.928;27.662;2023-11-19T03:04:37;99486.25;;;0.71;100.00
56912;BME280;42800;53.928;27.662;2023-11-19T03:07:05;99460.66;;;0.68;100.00
56912;BME280;42800;53.928;27.662;2023-11-19T03:09:31;99483.22;;;0.35;100.00
56912;BME280;42800;53.928;27.662;2023-11-19T03:11:59;99553.69;;;0.52;100.00
56912;BME280;42800;53.928;27.662;2023-11-19T03:14:25;99538.69;;;0.65;100.00
56912;BME280;42800;53.928;27.662;2023-11-19T03:16:51;99515.72;;;0.67;100.00
56912;BME280;42800;53.928;27.662;2023-11-19T03:19:18;99527.31;;;0.68;100.00
56912;BME280;42800;53.928;27.662;2023-11-19T03:21:45;99500.47;;;0.58;100.00
56912;BME280;42800;53.928;27.662;2023-11-19T03:24:13;99579.09;;;0.46;100.00
56912;BME280;42800;53.928;27.662;2023-11-19T03:26:39;99574.13;;;0.34;100.00
56912;BME280;42800;53.928;27.662;2023-11-19T03:29:06;99593.44;;;0.65;100.00
56912;BME280;42800;53.928;27.662;2023-11-19T03:31:32;99557.03;;;0.63;100.00
56912;BME280;42800;53.928;27.662;2023-11-19T03:33:58;99585.06;;;0.67;100.00
56912;BME280;42800;53.928;27.662;2023-11-19T03:36:25;99565.22;;;0.58;100.00
56912;BME280;42800;53.928;27.662;2023-11-19T03:38:51;99578.16;;;0.37;100.00
56912;BME280;42800;53.928;27.662;2023-11-19T03:41:17;99614.22;;;0.65;100.00
56912;BME280;42800;53.928;27.662;2023-11-19T03:43:44;99593.22;;;0.38;100.00
56912;BME280;42800;53.928;27.662;2023-11-19T03:46:18;99606.75;;;0.33;100.00
56912;BME280;42800;53.928;27.662;2023-11-19T03:48:44;99622.16;;;0.56;100.00
56912;BME280;42800;53.928;27.662;2023-11-19T03:51:11;99617.47;;;0.67;100.00
56912;BME280;42800;53.928;27.662;2023-11-19T03:53:42;99594.19;;;0.71;100.00
56912;BME280;42800;53.928;27.662;2023-11-19T03:56:08;99559.25;;;0.61;100.00
56912;BME280;42800;53.928;27.662;2023-11-19T03:58:35;99557.22;;;0.72;100.00
56912;BME280;42800;53.928;27.662;2023-11-19T04:01:01;99561.53;;;0.49;100.00
56912;BME280;42800;53.928;27.662;2023-11-19T04:03:28;99564.59;;;0.42;100.00
56912;BME280;42800;53.928;27.662;2023-11-19T04:05:54;99593.19;;;0.67;100.00
56912;BME280;42800;53.928;27.662;2023-11-19T04:08:20;99572.56;;;0.28;100.00
56912;BME280;42800;53.928;27.662;2023-11-19T04:10:47;99627.97;;;0.44;100.00
56912;BME280;42800;53.928;27.662;2023-11-19T04:13:14;99595.94;;;0.38;100.00
56912;BME280;42800;53.928;27.662;2023-11-19T04:15:40;99608.50;;;0.47;100.00
56912;BME280;42800;53.928;27.662;2023-11-19T04:18:06;99625.59;;;0.62;100.00
56912;BME280;42800;53.928;27.662;2023-11-19T04:20:32;99584.13;;;0.77;100.00
56912;BME280;42800;53.928;27.662;2023-11-19T04:22:59;99536.78;;;0.65;100.00
56912;BME280;42800;53.928;27.662;2023-11-19T04:25:26;99588.00;;;0.46;100.00
56912;BME280;42800;53.928;27.662;2023-11-19T04:27:53;99617.69;;;0.70;100.00
56912;BME280;42800;53.928;27.662;2023-11-19T04:30:19;99583.63;;;0.27;100.00
56912;BME280;42800;53.928;27.662;2023-11-19T04:32:45;99617.59;;;0.57;100.00
56912;BME280;42800;53.928;27.662;2023-11-19T04:35:12;99595.88;;;0.67;100.00
56912;BME280;42800;53.928;27.662;2023-11-19T04:37:38;99584.78;;;0.68;100.00
56912;BME280;42800;53.928;27.662;2023-11-19T04:40:06;99592.81;;;0.74;100.00
56912;BME280;42800;53.928;27.662;2023-11-19T04:42:32;99590.41;;;0.72;100.00
56912;BME280;42800;53.928;27.662;2023-11-19T04:44:59;99570.06;;;0.80;100.00
56912;BME280;42800;53.928;27.662;2023-11-19T04:47:25;99558.91;;;0.67;100.00
56912;BME280;42800;53.928;27.662;2023-11-19T04:49:51;99555.59;;;0.28;100.00
56912;BME280;42800;53.928;27.662;2023-11-19T04:52:18;99634.50;;;0.62;100.00
56912;BME280;42800;53.928;27.662;2023-11-19T04:54:44;99603.44;;;0.65;100.00
56912;BME280;42800;53.928;27.662;2023-11-19T04:57:10;99605.63;;;0.63;100.00
56912;BME280;42800;53.928;27.662;2023-11-19T04:59:36;99619.75;;;0.55;100.00
56912;BME280;42800;53.928;27.662;2023-11-19T05:02:04;99611.50;;;0.70;100.00
56912;BME280;42800;53.928;27.662;2023-11-19T05:04:30;99584.25;;;0.66;100.00
56912;BME280;42800;53.928;27.662;2023-11-19T05:06:56;99631.53;;;0.64;100.00
56912;BME280;42800;53.928;27.662;2023-11-19T05:09:22;99629.28;;;0.47;100.00
56912;BME280;42800;53.928;27.662;2023-11-19T05:11:49;99663.91;;;0.64;100.00
56912;BME280;42800;53.928;27.662;2023-11-19T05:14:15;99641.78;;;0.62;100.00
56912;BME280;42800;53.928;27.662;2023-11-19T05:16:42;99665.75;;;0.39;100.00
56912;BME280;42800;53.928;27.662;2023-11-19T05:19:09;99697.88;;;0.65;100.00
56912;BME280;42800;53.928;27.662;2023-11-19T05:21:35;99721.91;;;0.37;100.00
56912;BME280;42800;53.928;27.662;2023-11-19T05:24:01;99739.34;;;0.74;100.00
56912;BME280;42800;53.928;27.662;2023-11-19T05:26:30;99733.44;;;0.43;100.00
56912;BME280;42800;53.928;27.662;2023-11-19T05:28:56;99763.19;;;0.33;100.00
56912;BME280;42800;53.928;27.662;2023-11-19T05:31:23;99797.50;;;0.61;100.00
56912;BME280;42800;53.928;27.662;2023-11-19T05:33:49;99784.81;;;0.62;100.00
56912;BME280;42800;53.928;27.662;2023-11-19T05:36:16;99780.28;;;0.52;100.00
56912;BME280;42800;53.928;27.662;2023-11-19T05:38:42;99799.31;;;0.66;100.00
56912;BME280;42800;53.928;27.662;2023-11-19T05:41:10;99800.72;;;0.63;100.00
56912;BME280;42800;53.928;27.662;2023-11-19T05:43:36;99794.69;;;0.72;100.00
56912;BME280;42800;53.928;27.662;2023-11-19T05:46:03;99772.44;;;0.56;100.00
56912;BME280;42800;53.928;27.662;2023-11-19T05:48:30;99821.16;;;0.69;100.00
56912;BME280;42800;53.928;27.662;2023-11-19T05:50:56;99814.66;;;0.41;100.00
56912;BME280;42800;53.928;27.662;2023-11-19T05:53:23;99835.28;;;0.22;100.00
56912;BME280;42800;53.928;27.662;2023-11-19T05:55:50;99862.47;;;0.70;100.00
56912;BME280;42800;53.928;27.662;2023-11-19T05:58:24;99846.84;;;0.67;100.00
56912;BME280;42800;53.928;27.662;2023-11-19T06:00:52;99838.41;;;0.74;100.00
56912;BME280;42800;53.928;27.662;2023-11-19T06:03:18;99827.66;;;0.68;100.00
56912;BME280;42800;53.928;27.662;2023-11-19T06:05:45;99830.75;;;0.52;100.00
56912;BME280;42800;53.928;27.662;2023-11-19T06:08:11;99842.81;;;0.64;100.00
56912;BME280;42800;53.928;27.662;2023-11-19T06:10:39;99845.41;;;0.75;100.00
56912;BME280;42800;53.928;27.662;2023-11-19T06:13:06;99852.91;;;0.49;100.00
56912;BME280;42800;53.928;27.662;2023-11-19T06:15:33;99866.78;;;0.66;100.00
56912;BME280;42800;53.928;27.662;2023-11-19T06:17:59;99862.84;;;0.09;100.00
56912;BME280;42800;53.928;27.662;2023-11-19T06:20:27;99899.50;;;0.59;100.00
56912;BME280;42800;53.928;27.662;2023-11-19T06:22:54;99882.31;;;0.50;100.00
56912;BME280;42800;53.928;27.662;2023-11-19T06:25:20;99887.13;;;0.53;100.00
56912;BME280;42800;53.928;27.662;2023-11-19T06:27:47;99893.44;;;0.38;100.00
56912;BME280;42800;53.928;27.662;2023-11-19T06:30:14;99901.47;;;0.49;100.00
56912;BME280;42800;53.928;27.662;2023-11-19T06:32:40;99913.53;;;0.56;100.00
56912;BME280;42800;53.928;27.662;2023-11-19T06:35:07;99902.31;;;0.39;100.00
56912;BME280;42800;53.928;27.662;2023-11-19T06:37:35;99915.44;;;0.56;100.00
56912;BME280;42800;53.928;27.662;2023-11-19T06:40:01;99909.78;;;0.57;100.00
56912;BME280;42800;53.928;27.662;2023-11-19T06:42:28;99920.88;;;0.51;100.00
56912;BME280;42800;53.928;27.662;2023-11-19T06:44:55;99918.53;;;0.73;100.00
56912;BME280;42800;53.928;27.662;2023-11-19T06:47:22;99916.94;;;0.72;100.00
56912;BME280;42800;53.928;27.662;2023-11-19T06:49:49;99913.06;;;0.83;100.00
56912;BME280;42800;53.928;27.662;2023-11-19T06:52:16;99907.91;;;0.53;100.00
56912;BME280;42800;53.928;27.662;2023-11-19T06:54:42;99916.78;;;0.58;100.00
56912;BME280;42800;53.928;27.662;2023-11-19T06:57:08;99916.47;;;0.60;100.00
56912;BME280;42800;53.928;27.662;2023-11-19T06:59:35;99924.88;;;0.53;100.00
56912;BME280;42800;53.928;27.662;2023-11-19T07:02:02;99936.28;;;0.40;100.00
56912;BME280;42800;53.928;27.662;2023-11-19T07:04:29;99937.63;;;0.47;100.00
56912;BME280;42800;53.928;27.662;2023-11-19T07:06:55;99932.88;;;0.74;100.00
56912;BME280;42800;53.928;27.662;2023-11-19T07:09:21;99930.59;;;0.91;100.00
56912;BME280;42800;53.928;27.662;2023-11-19T07:11:49;99927.81;;;0.96;100.00
56912;BME280;42800;53.928;27.662;2023-11-19T07:14:17;99917.19;;;0.76;100.00
56912;BME280;42800;53.928;27.662;2023-11-19T07:16:44;99920.59;;;0.91;100.00
56912;BME280;42800;53.928;27.662;2023-11-19T07:19:12;99915.91;;;0.68;100.00
56912;BME280;42800;53.928;27.662;2023-11-19T07:21:41;99912.44;;;0.97;100.00
56912;BME280;42800;53.928;27.662;2023-11-19T07:24:09;99895.84;;;1.13;100.00
56912;BME280;42800;53.928;27.662;2023-11-19T07:26:36;99883.69;;;1.11;100.00
56912;BME280;42800;53.928;27.662;2023-11-19T07:29:03;99872.25;;;0.90;100.00
56912;BME280;42800;53.928;27.662;2023-11-19T07:31:33;99876.84;;;0.89;100.00
56912;BME280;42800;53.928;27.662;2023-11-19T07:33:59;99877.66;;;0.90;100.00
56912;BME280;42800;53.928;27.662;2023-11-19T07:36:26;99874.38;;;0.93;100.00
56912;BME280;42800;53.928;27.662;2023-11-19T07:38:52;99860.72;;;0.50;100.00
56912;BME280;42800;53.928;27.662;2023-11-19T07:41:18;99882.72;;;0.97;100.00
56912;BME280;42800;53.928;27.662;2023-11-19T07:43:45;99869.13;;;0.78;100.00
56912;BME280;42800;53.928;27.662;2023-11-19T07:46:12;99875.81;;;0.51;100.00
56912;BME280;42800;53.928;27.662;2023-11-19T07:48:39;99890.97;;;0.42;100.00
56912;BME280;42800;53.928;27.662;2023-11-19T07:51:05;99902.66;;;0.72;100.00
56912;BME280;42800;53.928;27.662;2023-11-19T07:53:32;99906.63;;;0.79;100.00
56912;BME280;42800;53.928;27.662;2023-11-19T07:55:58;99896.78;;;0.64;100.00
56912;BME280;42800;53.928;27.662;2023-11-19T07:58:25;99902.50;;;0.53;100.00
56912;BME280;42800;53.928;27.662;2023-11-19T08:00:51;99906.28;;;0.57;100.00
56912;BME280;42800;53.928;27.662;2023-11-19T08:03:18;99898.84;;;0.73;100.00
56912;BME280;42800;53.928;27.662;2023-11-19T08:05:45;99890.00;;;0.67;100.00
56912;BME280;42800;53.928;27.662;2023-11-19T08:08:11;99880.47;;;0.40;100.00
56912;BME280;42800;53.928;27.662;2023-11-19T08:10:40;99881.91;;;0.67;100.00
56912;BME280;42800;53.928;27.662;2023-11-19T08:13:06;99877.72;;;0.45;100.00
56912;BME280;42800;53.928;27.662;2023-11-19T08:15:33;99886.06;;;0.49;100.00
56912;BME280;42800;53.928;27.662;2023-11-19T08:17:59;99880.59;;;0.59;100.00
56912;BME280;42800;53.928;27.662;2023-11-19T08:20:26;99880.09;;;0.13;100.00
56912;BME280;42800;53.928;27.662;2023-11-19T08:22:52;99890.00;;;0.22;100.00
56912;BME280;42800;53.928;27.662;2023-11-19T08:25:18;99889.47;;;0.26;100.00
56912;BME280;42800;53.928;27.662;2023-11-19T08:27:45;99891.97;;;0.90;100.00
56912;BME280;42800;53.928;27.662;2023-11-19T08:30:12;99872.50;;;0.59;100.00
56912;BME280;42800;53.928;27.662;2023-11-19T08:32:39;99868.97;;;0.64;100.00
56912;BME280;42800;53.928;27.662;2023-11-19T08:35:07;99867.00;;;0.35;100.00
56912;BME280;42800;53.928;27.662;2023-11-19T08:37:33;99864.25;;;0.80;100.00
56912;BME280;42800;53.928;27.662;2023-11-19T08:40:02;99844.38;;;0.70;100.00
56912;BME280;42800;53.928;27.662;2023-11-19T08:42:30;99832.16;;;0.44;100.00
56912;BME280;42800;53.928;27.662;2023-11-19T08:44:56;99837.97;;;0.22;100.00
56912;BME280;42800;53.928;27.662;2023-11-19T08:47:23;99835.09;;;0.82;100.00
56912;BME280;42800;53.928;27.662;2023-11-19T08:49:50;99809.09;;;0.28;100.00
56912;BME280;42800;53.928;27.662;2023-11-19T08:52:17;99815.63;;;0.16;100.00
56912;BME280;42800;53.928;27.662;2023-11-19T08:54:43;99832.72;;;0.41;100.00
56912;BME280;42800;53.928;27.662;2023-11-19T08:57:10;99829.47;;;0.44;100.00
56912;BME280;42800;53.928;27.662;2023-11-19T08:59:36;99826.31;;;0.66;100.00
56912;BME280;42800;53.928;27.662;2023-11-19T09:02:04;99797.91;;;0.44;100.00
56912;BME280;42800;53.928;27.662;2023-11-19T09:04:30;99791.66;;;0.78;100.00
56912;BME280;42800;53.928;27.662;2023-11-19T09:06:57;99784.84;;;0.57;100.00
56912;BME280;42800;53.928;27.662;2023-11-19T09:09:23;99786.06;;;0.40;100.00
56912;BME280;42800;53.928;27.662;2023-11-19T09:11:50;99777.03;;;0.55;100.00
56912;BME280;42800;53.928;27.662;2023-11-19T09:14:16;99791.94;;;0.47;100.00
56912;BME280;42800;53.928;27.662;2023-11-19T09:16:43;99794.50;;;0.34;100.00
56912;BME280;42800;53.928;27.662;2023-11-19T09:19:10;99791.34;;;0.21;100.00
56912;BME280;42800;53.928;27.662;2023-11-19T09:21:37;99804.06;;;0.50;100.00
56912;BME280;42800;53.928;27.662;2023-11-19T09:24:05;99783.47;;;0.30;100.00
56912;BME280;42800;53.928;27.662;2023-11-19T09:26:33;99796.19;;;0.19;100.00
56912;BME280;42800;53.928;27.662;2023-11-19T09:28:59;99785.47;;;0.14;100.00
56912;BME280;42800;53.928;27.662;2023-11-19T09:31:26;99796.47;;;0.52;100.00
56912;BME280;42800;53.928;27.662;2023-11-19T09:33:52;99783.00;;;0.81;100.00
56912;BME280;42800;53.928;27.662;2023-11-19T09:36:19;99761.69;;;0.80;100.00
56912;BME280;42800;53.928;27.662;2023-11-19T09:38:45;99738.72;;;0.24;100.00
56912;BME280;42800;53.928;27.662;2023-11-19T09:41:12;99733.72;;;0.41;100.00
56912;BME280;42800;53.928;27.662;2023-11-19T09:43:39;99748.97;;;0.27;100.00
56912;BME280;42800;53.928;27.662;2023-11-19T09:46:06;99750.00;;;0.31;100.00
56912;BME280;42800;53.928;27.662;2023-11-19T09:48:33;99756.63;;;0.73;100.00
56912;BME280;42800;53.928;27.662;2023-11-19T09:51:01;99726.09;;;0.49;100.00
56912;BME280;42800;53.928;27.662;2023-11-19T09:53:28;99716.63;;;0.80;100.00
56912;BME280;42800;53.928;27.662;2023-11-19T09:55:55;99704.19;;;0.79;100.00
56912;BME280;42800;53.928;27.662;2023-11-19T09:58:22;99673.34;;;0.37;100.00
56912;BME280;42800;53.928;27.662;2023-11-19T10:00:49;99685.16;;;0.41;100.00
56912;BME280;42800;53.928;27.662;2023-11-19T10:03:17;99677.88;;;0.42;100.00
56912;BME280;42800;53.928;27.662;2023-11-19T10:05:46;99676.03;;;0.90;100.00
56912;BME280;42800;53.928;27.662;2023-11-19T10:08:12;99638.41;;;0.51;100.00
56912;BME280;42800;53.928;27.662;2023-11-19T10:10:40;99639.16;;;0.57;100.00
56912;BME280;42800;53.928;27.662;2023-11-19T10:13:06;99651.97;;;0.17;100.00
56912;BME280;42800;53.928;27.662;2023-11-19T10:15:36;99679.63;;;-0.02;100.00
56912;BME280;42800;53.928;27.662;2023-11-19T10:18:03;99705.00;;;-0.08;100.00
56912;BME280;42800;53.928;27.662;2023-11-19T10:20:35;99718.91;;;0.39;100.00
56912;BME280;42800;53.928;27.662;2023-11-19T10:23:04;99691.00;;;0.25;100.00
56912;BME280;42800;53.928;27.662;2023-11-19T10:25:33;99689.72;;;0.17;100.00
56912;BME280;42800;53.928;27.662;2023-11-19T10:28:00;99696.06;;;0.31;100.00
56912;BME280;42800;53.928;27.662;2023-11-19T10:30:28;99681.56;;;0.51;100.00
56912;BME280;42800;53.928;27.662;2023-11-19T10:33:03;99683.28;;;0.42;100.00
56912;BME280;42800;53.928;27.662;2023-11-19T10:35:31;99668.88;;;0.22;100.00
56912;BME280;42800;53.928;27.662;2023-11-19T10:37:59;99672.69;;;0.21;100.00
56912;BME280;42800;53.928;27.662;2023-11-19T10:40:37;99676.00;;;0.66;100.00
56912;BME280;42800;53.928;27.662;2023-11-19T10:43:04;99634.41;;;0.19;100.00
56912;BME280;42800;53.928;27.662;2023-11-19T10:45:33;99677.06;;;0.12;100.00
56912;BME280;42800;53.928;27.662;2023-11-19T10:47:59;99687.94;;;0.02;100.00
56912;BME280;42800;53.928;27.662;2023-11-19T10:50:26;99709.41;;;0.17;100.00
56912;BME280;42800;53.928;27.662;2023-11-19T10:52:56;99686.81;;;0.08;100.00
56912;BME280;42800;53.928;27.662;2023-11-19T10:55:27;99688.00;;;0.26;100.00
56912;BME280;42800;53.928;27.662;2023-11-19T10:57:58;99687.97;;;0.60;100.00
56912;BME280;42800;53.928;27.662;2023-11-19T11:00:26;99651.53;;;0.82;100.00
56912;BME280;42800;53.928;27.662;2023-11-19T11:02:56;99596.31;;;0.74;100.00
56912;BME280;42800;53.928;27.662;2023-11-19T11:05:26;99581.91;;;-0.17;100.00
56912;BME280;42800;53.928;27.662;2023-11-19T11:07:55;99644.34;;;-0.05;100.00
56912;BME280;42800;53.928;27.662;2023-11-19T11:10:25;99674.16;;;0.38;100.00
56912;BME280;42800;53.928;27.662;2023-11-19T11:12:52;99652.22;;;0.20;100.00
56912;BME280;42800;53.928;27.662;2023-11-19T11:15:26;99638.34;;;0.56;100.00
56912;BME280;42800;53.928;27.662;2023-11-19T11:17:56;99586.97;;;0.42;100.00
56912;BME280;42800;53.928;27.662;2023-11-19T11:20:23;99588.59;;;0.43;100.00
56912;BME280;42800;53.928;27.662;2023-11-19T11:22:55;99586.34;;;0.51;100.00
56912;BME280;42800;53.928;27.662;2023-11-19T11:25:32;99603.75;;;0.63;100.00
56912;BME280;42800;53.928;27.662;2023-11-19T11:28:16;99540.00;;;0.86;100.00
56912;BME280;42800;53.928;27.662;2023-11-19T11:31:00;99503.00;;;0.30;100.00
56912;BME280;42800;53.928;27.662;2023-11-19T11:33:40;99530.34;;;0.18;100.00
56912;BME280;42800;53.928;27.662;2023-11-19T11:36:14;99540.91;;;0.15;100.00
56912;BME280;42800;53.928;27.662;2023-11-19T11:38:44;99549.97;;;0.00;100.00
56912;BME280;42800;53.928;27.662;2023-11-19T11:41:17;99577.84;;;0.38;100.00
56912;BME280;42800;53.928;27.662;2023-11-19T11:43:45;99541.88;;;0.24;100.00
56912;BME280;42800;53.928;27.662;2023-11-19T11:49:12;99545.59;;;0.28;100.00
56912;BME280;42800;53.928;27.662;2023-11-19T11:52:01;99501.94;;;0.50;100.00
56912;BME280;42800;53.928;27.662;2023-11-19T11:54:29;99461.47;;;0.26;100.00
56912;BME280;42800;53.928;27.662;2023-11-19T11:57:03;99443.72;;;0.63;100.00
56912;BME280;42800;53.928;27.662;2023-11-19T11:59:36;99384.69;;;0.42;100.00
56912;BME280;42800;53.928;27.662;2023-11-19T12:02:03;99401.50;;;0.53;100.00
56912;BME280;42800;53.928;27.662;2023-11-19T12:04:30;99381.84;;;0.85;100.00
56912;BME280;42800;53.928;27.662;2023-11-19T12:07:04;99356.09;;;0.41;100.00
56912;BME280;42800;53.928;27.662;2023-11-19T12:09:31;99376.81;;;0.27;100.00
56912;BME280;42800;53.928;27.662;2023-11-19T12:12:07;99402.91;;;0.32;100.00
56912;BME280;42800;53.928;27.662;2023-11-19T12:15:00;99435.66;;;0.44;100.00
56912;BME280;42800;53.928;27.662;2023-11-19T12:17:43;99462.97;;;0.37;100.00
56912;BME280;42800;53.928;27.662;2023-11-19T12:20:15;99467.44;;;0.23;100.00
56912;BME280;42800;53.928;27.662;2023-11-19T12:22:43;99490.69;;;0.19;100.00
56912;BME280;42800;53.928;27.662;2023-11-19T12:25:10;99503.00;;;0.49;100.00
56912;BME280;42800;53.928;27.662;2023-11-19T12:27:39;99482.78;;;0.28;100.00
56912;BME280;42800;53.928;27.662;2023-11-19T12:30:07;99444.97;;;0.52;100.00
56912;BME280;42800;53.928;27.662;2023-11-19T12:32:40;99399.66;;;0.86;100.00
56912;BME280;42800;53.928;27.662;2023-11-19T12:35:07;99387.53;;;0.32;100.00
56912;BME280;42800;53.928;27.662;2023-11-19T12:37:41;99397.34;;;0.04;100.00
56912;BME280;42800;53.928;27.662;2023-11-19T12:40:13;99448.13;;;0.16;100.00
56912;BME280;42800;53.928;27.662;2023-11-19T12:42:39;99420.31;;;0.20;100.00
56912;BME280;42800;53.928;27.662;2023-11-19T12:45:07;99456.53;;;0.33;100.00
56912;BME280;42800;53.928;27.662;2023-11-19T12:47:34;99429.81;;;0.56;100.00
56912;BME280;42800;53.928;27.662;2023-11-19T12:50:00;99403.84;;;0.22;100.00
56912;BME280;42800;53.928;27.662;2023-11-19T12:52:26;99416.75;;;0.44;100.00
56912;BME280;42800;53.928;27.662;2023-11-19T12:54:54;99421.66;;;-0.01;100.00